Time;durP1;ratioP1;P1;durP2;ratioP2;P2;SDS_P1;SDS_P2;PMS_P1;PMS_P2;Temp;Humidity;BMP_temperature;BMP_pressure;BME280_temperature;BME280_humidity;BME280_pressure;Samples;Min_cycle;Max_cycle;Signal;HPM_P1;HPM_P2
2023/05/08 00:00:27;;;;;;;;;;;16.20;69.40;;;;;;4980256;28;19937;-69
2023/05/08 00:02:54;;;;;;;;;;;16.20;69.50;;;;;;4985236;28;19933;-69
2023/05/08 00:05:21;;;;;;;;;;;16.20;69.50;;;;;;4986318;28;19930;-69
2023/05/08 00:07:50;;;;;;;;;;;16.20;69.40;;;;;;4983947;28;19930;-70
2023/05/08 00:10:16;;;;;;;;;;;16.10;69.50;;;;;;4984436;28;19941;-70
2023/05/08 00:12:43;;;;;;;;;;;16.10;69.50;;;;;;4984294;28;19934;-70
2023/05/08 00:15:10;;;;;;;;;;;16.10;69.50;;;;;;4984607;28;19930;-69
2023/05/08 00:17:37;;;;;;;;;;;16.10;69.70;;;;;;4983393;28;19942;-68
2023/05/08 00:20:04;;;;;;;;;;;16.00;70.00;;;;;;4984721;28;19941;-70
2023/05/08 00:22:31;;;;;;;;;;;16.10;70.00;;;;;;4985126;28;19934;-70
2023/05/08 00:24:59;;;;;;;;;;;16.10;70.00;;;;;;4984448;28;19941;-70
2023/05/08 00:27:25;;;;;;;;;;;16.00;69.90;;;;;;4979004;28;19937;-69
2023/05/08 00:29:52;;;;;;;;;;;16.00;69.80;;;;;;4982856;28;19926;-69
2023/05/08 00:32:19;;;;;;;;;;;16.10;69.80;;;;;;4983659;28;19932;-69
2023/05/08 00:34:46;;;;;;;;;;;16.00;70.00;;;;;;4982101;28;19930;-70
2023/05/08 00:37:12;;;;;;;;;;;16.00;70.00;;;;;;4983332;28;20373;-69
2023/05/08 00:39:39;;;;;;;;;;;16.00;70.00;;;;;;4983113;28;19989;-69
2023/05/08 00:42:07;;;;;;;;;;;16.00;70.00;;;;;;4984270;28;19930;-70
2023/05/08 00:44:34;;;;;;;;;;;16.00;69.90;;;;;;4981683;28;19929;-69
2023/05/08 00:47:01;;;;;;;;;;;16.00;70.00;;;;;;4982878;28;19926;-70
2023/05/08 00:49:28;;;;;;;;;;;16.00;70.00;;;;;;4983507;28;19967;-71
2023/05/08 00:51:55;;;;;;;;;;;15.90;70.50;;;;;;4983707;28;20041;-69
2023/05/08 00:54:22;;;;;;;;;;;15.90;70.50;;;;;;4982043;28;20413;-69
2023/05/08 00:56:50;;;;;;;;;;;15.90;70.30;;;;;;4983400;28;19926;-69
2023/05/08 00:59:20;;;;;;;;;;;15.90;70.60;;;;;;4963199;28;20297;-69
2023/05/08 01:01:48;;;;;;;;;;;15.80;70.50;;;;;;4982538;28;19925;-70
2023/05/08 01:04:15;;;;;;;;;;;15.80;70.50;;;;;;4982959;28;19930;-70
2023/05/08 01:06:41;;;;;;;;;;;15.80;70.30;;;;;;4965574;28;19984;-62
2023/05/08 01:09:08;;;;;;;;;;;15.80;70.20;;;;;;4982309;28;19936;-64
2023/05/08 01:11:39;;;;;;;;;;;15.80;70.30;;;;;;4965549;28;20017;-62
2023/05/08 01:14:11;;;;;;;;;;;15.90;70.20;;;;;;4983205;28;19932;-62
2023/05/08 01:16:43;;;;;;;;;;;15.90;69.90;;;;;;4981224;28;19937;-61
2023/05/08 01:19:21;;;;;;;;;;;15.80;70.00;;;;;;4983314;28;19926;-62
2023/05/08 01:21:51;;;;;;;;;;;15.80;70.20;;;;;;4965718;28;19926;-62
2023/05/08 01:24:36;;;;;;;;;;;15.70;70.30;;;;;;4964700;28;19930;-63
2023/05/08 01:27:17;;;;;;;;;;;15.70;70.40;;;;;;4965116;28;19930;-61
2023/05/08 01:29:52;;;;;;;;;;;15.70;70.20;;;;;;4982721;28;19933;-62
2023/05/08 01:32:21;;;;;;;;;;;15.70;70.30;;;;;;4980074;28;19936;-61
2023/05/08 01:34:57;;;;;;;;;;;15.70;70.20;;;;;;4982192;28;20004;-61
2023/05/08 01:37:29;;;;;;;;;;;15.70;70.30;;;;;;4980082;28;20037;-63
2023/05/08 01:40:00;;;;;;;;;;;15.60;70.40;;;;;;4983382;28;19980;-63
2023/05/08 01:42:31;;;;;;;;;;;15.60;70.40;;;;;;4963046;28;19929;-62
2023/05/08 01:45:00;;;;;;;;;;;15.70;70.50;;;;;;4983534;28;19925;-61
2023/05/08 01:47:29;;;;;;;;;;;15.60;70.60;;;;;;4981052;28;19980;-62
2023/05/08 01:50:00;;;;;;;;;;;15.60;70.90;;;;;;4983198;28;19932;-63
2023/05/08 01:52:29;;;;;;;;;;;15.60;70.80;;;;;;4979816;28;19940;-75
2023/05/08 01:54:58;;;;;;;;;;;15.60;70.70;;;;;;4979678;28;20005;-74
2023/05/08 01:57:27;;;;;;;;;;;15.60;70.80;;;;;;4978700;28;19937;-74
2023/05/08 01:59:55;;;;;;;;;;;15.60;70.80;;;;;;4960645;28;19934;-74
2023/05/08 02:02:22;;;;;;;;;;;15.60;70.70;;;;;;4981739;28;20043;-74
2023/05/08 02:04:50;;;;;;;;;;;15.50;71.00;;;;;;4982425;28;20391;-74
2023/05/08 02:07:18;;;;;;;;;;;15.60;70.80;;;;;;4982262;28;19941;-74
2023/05/08 02:09:46;;;;;;;;;;;15.50;71.10;;;;;;4982156;28;19926;-74
2023/05/08 02:12:16;;;;;;;;;;;15.40;71.10;;;;;;4980911;28;20352;-74
2023/05/08 02:14:45;;;;;;;;;;;15.40;71.10;;;;;;4982034;28;20336;-74
2023/05/08 02:17:15;;;;;;;;;;;15.50;70.90;;;;;;4982121;28;19926;-74
2023/05/08 02:19:42;;;;;;;;;;;15.50;70.70;;;;;;4981495;28;20032;-75
2023/05/08 02:22:10;;;;;;;;;;;15.50;70.70;;;;;;4983831;28;19930;-76
2023/05/08 02:24:38;;;;;;;;;;;15.50;70.90;;;;;;4980733;28;19934;-77
2023/05/08 02:27:05;;;;;;;;;;;15.40;71.00;;;;;;4979663;28;19934;-75
2023/05/08 02:29:32;;;;;;;;;;;15.40;71.30;;;;;;4962214;28;19933;-77
2023/05/08 02:32:00;;;;;;;;;;;15.40;71.90;;;;;;4979344;28;19925;-77
2023/05/08 02:34:28;;;;;;;;;;;15.30;72.70;;;;;;4982060;28;20050;-75
2023/05/08 02:36:55;;;;;;;;;;;15.20;73.70;;;;;;4983263;28;19930;-79
2023/05/08 02:39:25;;;;;;;;;;;15.20;74.40;;;;;;4965807;28;19929;-79
2023/05/08 02:41:52;;;;;;;;;;;15.10;75.40;;;;;;4982688;28;19934;-79
2023/05/08 02:44:19;;;;;;;;;;;15.00;76.10;;;;;;4984418;28;19930;-79
2023/05/08 02:46:49;;;;;;;;;;;15.00;76.60;;;;;;4983206;28;19993;-77
2023/05/08 02:49:22;;;;;;;;;;;15.00;77.00;;;;;;4978816;28;20024;-78
2023/05/08 02:51:50;;;;;;;;;;;15.00;77.30;;;;;;4984580;28;20421;-78
2023/05/08 02:54:22;;;;;;;;;;;14.90;77.70;;;;;;4965986;28;19954;-80
2023/05/08 02:56:55;;;;;;;;;;;14.80;78.50;;;;;;4965667;28;19933;-61
2023/05/08 02:59:26;;;;;;;;;;;14.80;78.60;;;;;;4984278;28;19930;-61
2023/05/08 03:01:58;;;;;;;;;;;14.80;78.90;;;;;;4984501;28;19925;-68
2023/05/08 03:04:28;;;;;;;;;;;14.70;79.20;;;;;;4968693;28;19930;-68
2023/05/08 03:06:57;;;;;;;;;;;14.70;79.10;;;;;;4987033;28;19930;-62
2023/05/08 03:09:26;;;;;;;;;;;14.80;79.20;;;;;;4986316;28;19926;-62
2023/05/08 03:11:59;;;;;;;;;;;14.80;79.10;;;;;;4985051;28;19930;-61
2023/05/08 03:14:28;;;;;;;;;;;14.80;79.20;;;;;;4963279;28;20347;-61
2023/05/08 03:16:56;;;;;;;;;;;14.80;79.50;;;;;;4981294;28;19930;-62
2023/05/08 03:19:26;;;;;;;;;;;14.70;79.70;;;;;;4984942;28;20027;-61
2023/05/08 03:21:54;;;;;;;;;;;14.70;79.70;;;;;;4983481;28;19937;-67
2023/05/08 03:24:22;;;;;;;;;;;14.80;79.60;;;;;;4967647;28;19930;-69
2023/05/08 03:26:49;;;;;;;;;;;14.80;80.00;;;;;;4981686;28;20456;-68
2023/05/08 03:29:18;;;;;;;;;;;14.80;79.80;;;;;;4986550;28;19930;-68
2023/05/08 03:31:47;;;;;;;;;;;14.80;79.70;;;;;;4983841;28;19934;-67
2023/05/08 03:34:14;;;;;;;;;;;14.70;79.60;;;;;;4986486;28;19933;-66
2023/05/08 03:36:41;;;;;;;;;;;14.70;79.80;;;;;;4969236;28;20004;-68
2023/05/08 03:39:08;;;;;;;;;;;14.70;80.10;;;;;;4984946;28;19930;-68
2023/05/08 03:41:35;;;;;;;;;;;14.60;80.50;;;;;;4985289;28;20008;-68
2023/05/08 03:44:02;;;;;;;;;;;14.70;80.50;;;;;;4983969;28;19926;-68
2023/05/08 03:46:33;;;;;;;;;;;14.60;80.80;;;;;;4967307;28;19961;-74
2023/05/08 03:49:00;;;;;;;;;;;14.60;80.60;;;;;;4984202;28;20008;-75
2023/05/08 03:51:27;;;;;;;;;;;14.60;80.70;;;;;;4966816;28;19926;-75
2023/05/08 03:53:54;;;;;;;;;;;14.60;80.70;;;;;;4965690;28;19933;-76
2023/05/08 03:56:21;;;;;;;;;;;14.60;80.70;;;;;;4968098;28;19934;-76
2023/05/08 03:58:51;;;;;;;;;;;14.60;80.80;;;;;;4968808;28;19984;-77
2023/05/08 04:01:21;;;;;;;;;;;14.60;80.90;;;;;;4984193;28;19926;-69
2023/05/08 04:03:54;;;;;;;;;;;14.60;81.00;;;;;;4985490;28;19930;-69
2023/05/08 04:06:25;;;;;;;;;;;14.60;80.80;;;;;;4986097;28;20129;-76
2023/05/08 04:08:55;;;;;;;;;;;14.60;81.00;;;;;;4981781;28;19972;-77
2023/05/08 04:11:26;;;;;;;;;;;14.50;80.80;;;;;;4965019;28;20012;-62
2023/05/08 04:13:57;;;;;;;;;;;14.60;80.60;;;;;;4964706;28;19930;-62
2023/05/08 04:16:27;;;;;;;;;;;14.60;80.50;;;;;;4984183;28;20452;-61
2023/05/08 04:18:58;;;;;;;;;;;14.60;80.60;;;;;;4983877;28;20365;-63
2023/05/08 04:21:25;;;;;;;;;;;14.50;80.50;;;;;;4982787;28;20008;-71
2023/05/08 04:23:55;;;;;;;;;;;14.50;80.70;;;;;;4964003;28;19933;-71
2023/05/08 04:26:22;;;;;;;;;;;14.50;80.50;;;;;;4966066;28;19930;-67
2023/05/08 04:28:51;;;;;;;;;;;14.50;81.00;;;;;;4977908;28;20586;-67
2023/05/08 04:31:19;;;;;;;;;;;14.40;81.10;;;;;;4966015;28;19930;-77
2023/05/08 04:33:46;;;;;;;;;;;14.40;81.20;;;;;;4966113;28;19937;-77
2023/05/08 04:36:14;;;;;;;;;;;14.40;81.10;;;;;;4965426;28;19927;-77
2023/05/08 04:38:44;;;;;;;;;;;14.40;81.10;;;;;;4965415;28;19934;-77
2023/05/08 04:41:11;;;;;;;;;;;14.40;81.30;;;;;;4982325;28;19925;-76
2023/05/08 04:43:38;;;;;;;;;;;14.50;81.50;;;;;;4982146;28;19934;-77
2023/05/08 04:46:07;;;;;;;;;;;14.40;81.30;;;;;;4967059;28;19964;-61
2023/05/08 04:48:34;;;;;;;;;;;14.40;81.60;;;;;;4984761;28;19926;-63
2023/05/08 04:51:01;;;;;;;;;;;14.40;81.40;;;;;;4966134;28;20016;-70
2023/05/08 04:53:29;;;;;;;;;;;14.40;81.50;;;;;;4966231;28;20381;-71
2023/05/08 04:55:57;;;;;;;;;;;14.40;81.60;;;;;;4983017;28;19965;-61
2023/05/08 04:58:24;;;;;;;;;;;14.40;81.60;;;;;;4965889;28;20388;-62
2023/05/08 05:00:51;;;;;;;;;;;14.40;81.60;;;;;;4979398;28;19934;-61
2023/05/08 05:03:18;;;;;;;;;;;14.40;81.90;;;;;;4967518;28;19929;-61
2023/05/08 05:05:45;;;;;;;;;;;14.40;82.00;;;;;;4984835;28;19926;-68
2023/05/08 05:08:12;;;;;;;;;;;14.40;82.10;;;;;;4966207;28;20486;-69
2023/05/08 05:10:42;;;;;;;;;;;14.30;82.40;;;;;;4981060;28;20016;-61
2023/05/08 05:13:08;;;;;;;;;;;14.40;82.20;;;;;;4984430;28;20302;-62
2023/05/08 05:15:35;;;;;;;;;;;14.40;82.00;;;;;;4982130;28;20029;-66
2023/05/08 05:18:02;;;;;;;;;;;14.40;81.90;;;;;;4965408;28;19993;-66
2023/05/08 05:20:29;;;;;;;;;;;14.50;82.00;;;;;;4964626;28;20390;-66
2023/05/08 05:22:57;;;;;;;;;;;14.60;82.00;;;;;;4966409;28;19926;-66
2023/05/08 05:25:24;;;;;;;;;;;14.50;82.10;;;;;;4982025;28;20285;-62
2023/05/08 05:27:53;;;;;;;;;;;14.50;81.80;;;;;;4983068;28;19926;-62
2023/05/08 05:30:19;;;;;;;;;;;14.60;81.90;;;;;;4983531;28;19961;-70
2023/05/08 05:32:46;;;;;;;;;;;14.60;81.90;;;;;;4963171;28;20427;-71
2023/05/08 05:35:13;;;;;;;;;;;14.60;81.90;;;;;;4965470;28;20433;-72
2023/05/08 05:37:40;;;;;;;;;;;14.60;81.70;;;;;;4964435;28;19933;-71
2023/05/08 05:40:09;;;;;;;;;;;14.60;81.70;;;;;;4963194;28;19930;-71
2023/05/08 05:42:37;;;;;;;;;;;14.60;81.70;;;;;;4982248;28;19938;-68
2023/05/08 05:45:06;;;;;;;;;;;14.60;81.50;;;;;;4981221;28;19926;-67
2023/05/08 05:47:33;;;;;;;;;;;14.60;81.50;;;;;;4965995;28;19930;-71
2023/05/08 05:50:02;;;;;;;;;;;14.70;81.90;;;;;;4981098;28;19925;-72
2023/05/08 05:52:30;;;;;;;;;;;14.70;82.00;;;;;;4965451;28;19980;-75
2023/05/08 05:54:57;;;;;;;;;;;14.70;81.90;;;;;;4966091;28;19936;-77
2023/05/08 05:57:23;;;;;;;;;;;14.70;81.60;;;;;;4981688;28;19930;-67
2023/05/08 05:59:50;;;;;;;;;;;14.80;82.00;;;;;;4984868;28;19926;-68
2023/05/08 06:02:19;;;;;;;;;;;14.80;81.70;;;;;;4979701;28;19930;-67
2023/05/08 06:04:46;;;;;;;;;;;14.90;81.90;;;;;;4980254;28;19933;-68
2023/05/08 06:07:14;;;;;;;;;;;14.90;81.90;;;;;;4964880;28;19992;-72
2023/05/08 06:09:40;;;;;;;;;;;14.90;81.60;;;;;;4964395;28;20778;-71
2023/05/08 06:12:10;;;;;;;;;;;15.00;81.20;;;;;;4962996;28;20015;-68
2023/05/08 06:14:37;;;;;;;;;;;15.00;81.50;;;;;;4982897;28;19930;-66
2023/05/08 06:17:05;;;;;;;;;;;15.10;81.00;;;;;;4980223;28;20698;-67
2023/05/08 06:19:33;;;;;;;;;;;15.10;80.40;;;;;;4982812;28;19932;-66
2023/05/08 06:21:59;;;;;;;;;;;15.20;80.90;;;;;;4979249;28;19937;-67
2023/05/08 06:24:26;;;;;;;;;;;15.20;79.90;;;;;;4983134;28;19940;-66
2023/05/08 06:26:53;;;;;;;;;;;15.20;80.30;;;;;;4982739;28;19934;-69
2023/05/08 06:29:20;;;;;;;;;;;15.30;80.20;;;;;;4980860;28;19933;-66
2023/05/08 06:31:46;;;;;;;;;;;15.20;79.80;;;;;;4962154;28;19934;-68
2023/05/08 06:34:13;;;;;;;;;;;15.30;79.90;;;;;;4986832;28;19926;-67
2023/05/08 06:36:41;;;;;;;;;;;15.30;80.10;;;;;;4985739;28;20266;-76
2023/05/08 06:39:08;;;;;;;;;;;15.30;80.30;;;;;;4985704;28;19926;-74
2023/05/08 06:41:35;;;;;;;;;;;15.20;80.30;;;;;;4985123;28;19934;-67
2023/05/08 06:44:02;;;;;;;;;;;15.20;80.40;;;;;;4982822;28;19941;-68
2023/05/08 06:46:29;;;;;;;;;;;15.20;79.70;;;;;;4986076;28;20281;-62
2023/05/08 06:48:56;;;;;;;;;;;15.20;80.10;;;;;;4986490;28;20482;-62
2023/05/08 06:51:22;;;;;;;;;;;15.30;80.80;;;;;;4985061;28;19936;-76
2023/05/08 06:53:50;;;;;;;;;;;15.20;81.30;;;;;;4986091;28;19933;-77
2023/05/08 06:56:17;;;;;;;;;;;15.30;80.80;;;;;;4984900;28;19929;-65
2023/05/08 06:58:44;;;;;;;;;;;15.30;80.50;;;;;;4984028;28;19930;-65
2023/05/08 07:01:11;;;;;;;;;;;15.30;81.00;;;;;;4983837;28;19933;-65
2023/05/08 07:03:40;;;;;;;;;;;15.30;80.90;;;;;;4984007;28;19988;-63
2023/05/08 07:06:07;;;;;;;;;;;15.30;81.40;;;;;;4985259;28;20392;-61
2023/05/08 07:08:34;;;;;;;;;;;15.30;80.40;;;;;;4986742;28;20031;-61
2023/05/08 07:11:02;;;;;;;;;;;15.30;80.90;;;;;;4985729;28;19926;-69
2023/05/08 07:13:29;;;;;;;;;;;15.30;81.50;;;;;;4984644;28;20027;-69
2023/05/08 07:15:56;;;;;;;;;;;15.30;80.60;;;;;;4966631;28;19927;-69
2023/05/08 07:18:23;;;;;;;;;;;15.40;80.30;;;;;;4985502;28;20432;-69
2023/05/08 07:20:50;;;;;;;;;;;15.40;80.60;;;;;;4984815;28;19933;-67
2023/05/08 07:23:16;;;;;;;;;;;15.40;81.10;;;;;;4986472;28;20407;-67
2023/05/08 07:25:43;;;;;;;;;;;15.50;81.50;;;;;;4984706;28;20332;-74
2023/05/08 07:28:12;;;;;;;;;;;15.50;81.60;;;;;;4983508;28;19933;-72
2023/05/08 07:30:39;;;;;;;;;;;15.50;81.80;;;;;;4982925;28;19937;-63
2023/05/08 07:33:05;;;;;;;;;;;15.50;80.30;;;;;;4984712;28;19940;-63
2023/05/08 07:35:33;;;;;;;;;;;15.50;80.70;;;;;;4984719;28;19975;-62
2023/05/08 07:37:59;;;;;;;;;;;15.60;80.70;;;;;;4982261;28;20415;-61
2023/05/08 07:40:26;;;;;;;;;;;15.60;80.50;;;;;;4984960;28;19980;-66
2023/05/08 07:42:53;;;;;;;;;;;15.60;80.40;;;;;;4985454;28;20369;-67
2023/05/08 07:45:22;;;;;;;;;;;15.60;80.80;;;;;;4981533;28;19930;-65
2023/05/08 07:47:49;;;;;;;;;;;15.60;80.80;;;;;;4984402;28;19965;-67
2023/05/08 07:50:16;;;;;;;;;;;15.70;80.10;;;;;;4984829;28;19930;-67
2023/05/08 07:52:48;;;;;;;;;;;15.70;79.80;;;;;;4985398;28;19926;-67
2023/05/08 07:55:19;;;;;;;;;;;15.80;79.60;;;;;;4975795;28;19926;-67
2023/05/08 07:57:46;;;;;;;;;;;15.90;79.90;;;;;;4985457;28;19933;-67
2023/05/08 08:00:13;;;;;;;;;;;15.80;79.70;;;;;;4985667;28;19926;-67
2023/05/08 08:02:41;;;;;;;;;;;15.90;79.60;;;;;;4984644;28;19973;-66
2023/05/08 08:05:09;;;;;;;;;;;16.00;79.10;;;;;;4987538;28;19933;-67
2023/05/08 08:07:39;;;;;;;;;;;16.00;78.70;;;;;;4985765;28;19930;-66
2023/05/08 08:10:07;;;;;;;;;;;16.10;78.60;;;;;;4983283;28;19934;-66
2023/05/08 08:12:34;;;;;;;;;;;16.10;78.90;;;;;;4984247;28;20025;-63
2023/05/08 08:15:00;;;;;;;;;;;16.20;77.90;;;;;;4984766;28;19927;-62
2023/05/08 08:17:27;;;;;;;;;;;16.30;78.10;;;;;;4984791;28;19930;-73
2023/05/08 08:19:55;;;;;;;;;;;16.40;76.70;;;;;;4983946;28;20298;-76
2023/05/08 08:22:22;;;;;;;;;;;16.40;76.80;;;;;;4985716;28;19964;-69
2023/05/08 08:24:49;;;;;;;;;;;16.50;76.40;;;;;;4985344;28;20028;-68
2023/05/08 08:27:16;;;;;;;;;;;16.50;76.10;;;;;;4977281;28;19929;-68
2023/05/08 08:29:44;;;;;;;;;;;16.60;76.30;;;;;;4980165;28;19933;-70
2023/05/08 08:32:10;;;;;;;;;;;16.70;75.70;;;;;;4984145;28;19925;-66
2023/05/08 08:34:37;;;;;;;;;;;16.70;75.20;;;;;;4982588;28;20367;-66
2023/05/08 08:37:06;;;;;;;;;;;16.70;75.60;;;;;;4984020;28;19930;-62
2023/05/08 08:39:33;;;;;;;;;;;16.80;76.10;;;;;;4983340;28;19929;-62
2023/05/08 08:42:00;;;;;;;;;;;16.80;75.60;;;;;;4984079;28;19926;-68
2023/05/08 08:44:27;;;;;;;;;;;16.80;75.20;;;;;;4983120;28;19934;-67
2023/05/08 08:46:54;;;;;;;;;;;16.80;74.80;;;;;;4983543;28;19985;-73
2023/05/08 08:49:24;;;;;;;;;;;16.80;74.80;;;;;;4982584;28;20382;-73
2023/05/08 08:51:52;;;;;;;;;;;16.90;74.50;;;;;;4982933;28;20829;-73
2023/05/08 08:54:23;;;;;;;;;;;16.80;74.30;;;;;;4982567;28;19934;-73
2023/05/08 08:56:50;;;;;;;;;;;16.90;74.00;;;;;;4980282;28;19926;-74
2023/05/08 08:59:18;;;;;;;;;;;16.90;73.10;;;;;;4982503;28;20024;-72
2023/05/08 09:01:47;;;;;;;;;;;16.90;73.20;;;;;;4982139;28;20487;-62
2023/05/08 09:04:14;;;;;;;;;;;17.00;72.90;;;;;;4982894;28;19965;-62
2023/05/08 09:06:41;;;;;;;;;;;17.00;72.30;;;;;;4983670;28;19936;-63
2023/05/08 09:09:07;;;;;;;;;;;17.00;71.90;;;;;;4982804;28;20445;-62
2023/05/08 09:11:36;;;;;;;;;;;17.10;72.80;;;;;;4984117;28;19934;-62
2023/05/08 09:14:02;;;;;;;;;;;17.10;72.00;;;;;;4979933;28;20408;-61
2023/05/08 09:16:29;;;;;;;;;;;17.10;72.20;;;;;;4982639;28;19930;-67
2023/05/08 09:18:56;;;;;;;;;;;17.10;71.10;;;;;;4983915;28;19930;-69
2023/05/08 09:21:23;;;;;;;;;;;17.20;71.20;;;;;;4982741;28;19937;-69
2023/05/08 09:23:56;;;;;;;;;;;17.20;70.90;;;;;;4983208;28;19934;-68
2023/05/08 09:26:31;;;;;;;;;;;17.20;70.50;;;;;;4983019;28;19992;-62
2023/05/08 09:29:15;;;;;;;;;;;17.20;70.20;;;;;;4982010;28;20021;-63
2023/05/08 09:31:42;;;;;;;;;;;17.30;70.70;;;;;;4976847;28;19933;-62
2023/05/08 09:34:09;;;;;;;;;;;17.30;71.00;;;;;;4982013;28;19934;-65
2023/05/08 09:36:38;;;;;;;;;;;17.30;71.60;;;;;;4980770;28;19926;-74
2023/05/08 09:39:09;;;;;;;;;;;17.30;71.30;;;;;;4981509;28;19932;-74
2023/05/08 09:41:36;;;;;;;;;;;17.30;70.90;;;;;;4982485;28;19926;-77
2023/05/08 09:44:03;;;;;;;;;;;17.30;70.90;;;;;;4984141;28;20389;-76
2023/05/08 09:46:32;;;;;;;;;;;17.40;70.50;;;;;;4983340;28;19926;-68
2023/05/08 09:49:00;;;;;;;;;;;17.40;70.50;;;;;;4982983;28;19934;-68
2023/05/08 09:51:28;;;;;;;;;;;17.50;70.10;;;;;;4981758;28;19934;-68
2023/05/08 09:53:56;;;;;;;;;;;17.40;69.70;;;;;;4981511;28;19930;-68
2023/05/08 09:56:29;;;;;;;;;;;17.50;69.90;;;;;;4980839;28;19929;-66
2023/05/08 09:58:55;;;;;;;;;;;17.50;70.00;;;;;;4979620;28;19929;-68
2023/05/08 10:01:29;;;;;;;;;;;17.50;70.00;;;;;;4984586;28;20502;-67
2023/05/08 10:03:57;;;;;;;;;;;17.60;69.90;;;;;;4982840;28;19933;-68
2023/05/08 10:06:24;;;;;;;;;;;17.60;70.50;;;;;;4981531;28;19930;-62
2023/05/08 10:09:05;;;;;;;;;;;17.60;70.20;;;;;;4984609;28;19926;-63
2023/05/08 10:11:32;;;;;;;;;;;17.60;69.90;;;;;;4987806;28;20451;-63
2023/05/08 10:14:00;;;;;;;;;;;17.60;70.20;;;;;;4988911;28;19978;-63
2023/05/08 10:16:27;;;;;;;;;;;17.50;69.40;;;;;;4985533;28;19934;-67
2023/05/08 10:18:55;;;;;;;;;;;17.40;69.10;;;;;;4986813;28;19934;-66
2023/05/08 10:21:25;;;;;;;;;;;17.40;69.40;;;;;;4984973;28;19930;-69
2023/05/08 10:23:54;;;;;;;;;;;17.30;69.70;;;;;;4987295;28;19936;-68
2023/05/08 10:26:24;;;;;;;;;;;17.30;69.40;;;;;;4987358;28;19934;-67
2023/05/08 10:28:55;;;;;;;;;;;17.40;69.40;;;;;;4988340;28;19937;-67
2023/05/08 10:31:24;;;;;;;;;;;17.40;69.20;;;;;;4987323;28;19992;-68
2023/05/08 10:33:54;;;;;;;;;;;17.40;69.90;;;;;;4986933;28;19969;-69
2023/05/08 10:36:21;;;;;;;;;;;17.40;70.40;;;;;;4987761;28;20381;-67
2023/05/08 10:38:49;;;;;;;;;;;17.40;70.40;;;;;;4986879;28;19926;-66
2023/05/08 10:41:16;;;;;;;;;;;17.50;69.50;;;;;;4987197;28;20015;-68
2023/05/08 10:43:43;;;;;;;;;;;17.50;69.70;;;;;;4986641;28;19964;-69
2023/05/08 10:46:15;;;;;;;;;;;17.50;69.40;;;;;;4985839;28;20076;-68
2023/05/08 10:48:46;;;;;;;;;;;17.60;69.50;;;;;;4986081;28;19936;-68
2023/05/08 10:51:15;;;;;;;;;;;17.60;69.90;;;;;;4979356;28;19934;-68
2023/05/08 10:53:46;;;;;;;;;;;17.60;69.60;;;;;;4984463;28;19930;-67
2023/05/08 10:56:14;;;;;;;;;;;17.70;69.80;;;;;;4985028;28;20008;-68
2023/05/08 10:58:40;;;;;;;;;;;17.70;68.70;;;;;;4985871;28;19930;-68
2023/05/08 11:01:10;;;;;;;;;;;17.70;68.80;;;;;;4986313;28;20296;-68
2023/05/08 11:03:38;;;;;;;;;;;17.80;69.10;;;;;;4984175;28;19930;-68
2023/05/08 11:06:05;;;;;;;;;;;17.80;69.10;;;;;;4985200;28;19933;-74
2023/05/08 11:08:32;;;;;;;;;;;17.80;69.90;;;;;;4980235;28;20520;-73
2023/05/08 11:11:05;;;;;;;;;;;17.90;69.60;;;;;;4983360;28;20284;-61
2023/05/08 11:13:34;;;;;;;;;;;17.90;69.70;;;;;;4982999;28;20025;-62
2023/05/08 11:16:01;;;;;;;;;;;17.90;69.90;;;;;;4984638;28;20350;-72
2023/05/08 11:18:28;;;;;;;;;;;18.00;69.50;;;;;;4985107;28;19937;-73
2023/05/08 11:20:56;;;;;;;;;;;18.00;69.10;;;;;;4984717;28;19926;-73
2023/05/08 11:23:23;;;;;;;;;;;18.00;69.40;;;;;;4983362;28;19930;-74
2023/05/08 11:25:58;;;;;;;;;;;17.90;69.20;;;;;;4983852;28;20017;-63
2023/05/08 11:28:25;;;;;;;;;;;17.90;69.30;;;;;;4985590;28;20411;-63
2023/05/08 11:30:55;;;;;;;;;;;17.90;69.40;;;;;;4983842;28;19933;-69
2023/05/08 11:33:22;;;;;;;;;;;18.00;69.40;;;;;;4983961;28;19929;-70
2023/05/08 11:35:50;;;;;;;;;;;18.10;68.80;;;;;;4982537;28;19934;-66
2023/05/08 11:38:18;;;;;;;;;;;18.10;68.30;;;;;;4978594;28;19934;-67
2023/05/08 11:40:45;;;;;;;;;;;18.20;68.40;;;;;;4983447;28;19933;-66
2023/05/08 11:43:27;;;;;;;;;;;18.30;68.00;;;;;;4984164;28;20006;-67
2023/05/08 11:45:59;;;;;;;;;;;18.40;67.60;;;;;;4983462;28;19926;-77
2023/05/08 11:48:26;;;;;;;;;;;18.60;67.50;;;;;;4988219;28;19926;-75
2023/05/08 11:50:53;;;;;;;;;;;18.90;67.70;;;;;;4987003;28;20242;-78
2023/05/08 11:53:20;;;;;;;;;;;19.10;67.30;;;;;;4986811;28;20133;-77
2023/05/08 11:55:47;;;;;;;;;;;19.40;66.60;;;;;;4986851;28;19953;-69
2023/05/08 11:58:15;;;;;;;;;;;19.60;66.90;;;;;;4985069;28;20396;-70
2023/05/08 12:00:43;;;;;;;;;;;19.80;66.70;;;;;;4984795;28;20017;-69
2023/05/08 12:03:13;;;;;;;;;;;20.00;66.10;;;;;;4984299;28;19930;-71
2023/05/08 12:05:40;;;;;;;;;;;20.10;65.80;;;;;;4985206;28;19980;-74
2023/05/08 12:08:07;;;;;;;;;;;20.20;65.60;;;;;;4984412;28;19934;-74
2023/05/08 12:10:39;;;;;;;;;;;20.30;65.80;;;;;;4981794;28;19966;-75
2023/05/08 12:13:15;;;;;;;;;;;20.40;65.50;;;;;;4984390;28;19925;-76
2023/05/08 12:15:41;;;;;;;;;;;20.50;64.50;;;;;;4982672;28;20397;-66
2023/05/08 12:18:08;;;;;;;;;;;20.60;64.60;;;;;;4984985;28;19936;-67
2023/05/08 12:20:37;;;;;;;;;;;20.60;64.60;;;;;;4979862;28;19932;-66
2023/05/08 12:23:03;;;;;;;;;;;20.70;64.50;;;;;;4982618;28;19996;-67
2023/05/08 12:25:30;;;;;;;;;;;20.80;64.90;;;;;;4966782;28;19933;-64
2023/05/08 12:27:57;;;;;;;;;;;20.80;64.80;;;;;;4985263;28;20044;-63
2023/05/08 12:30:24;;;;;;;;;;;20.80;64.50;;;;;;4985196;28;19930;-67
2023/05/08 12:32:50;;;;;;;;;;;20.90;64.60;;;;;;4984181;28;19934;-68
2023/05/08 12:35:17;;;;;;;;;;;21.00;64.80;;;;;;4983782;28;19937;-67
2023/05/08 12:37:46;;;;;;;;;;;21.10;64.60;;;;;;4984563;28;19933;-66
2023/05/08 12:40:24;;;;;;;;;;;21.10;64.00;;;;;;4984176;28;19926;-67
2023/05/08 12:42:51;;;;;;;;;;;21.20;63.30;;;;;;4984404;28;19934;-67
2023/05/08 12:45:18;;;;;;;;;;;21.10;63.70;;;;;;4981843;28;19948;-69
2023/05/08 12:47:45;;;;;;;;;;;21.10;63.00;;;;;;4981199;28;19930;-68
2023/05/08 12:50:14;;;;;;;;;;;21.10;63.30;;;;;;4985188;28;19926;-68
2023/05/08 12:52:40;;;;;;;;;;;21.10;63.50;;;;;;4984309;28;19938;-67
2023/05/08 12:55:20;;;;;;;;;;;21.10;63.20;;;;;;4984192;28;19929;-67
2023/05/08 12:57:47;;;;;;;;;;;21.10;62.80;;;;;;4984357;28;19997;-67
2023/05/08 13:00:15;;;;;;;;;;;21.10;63.00;;;;;;4984466;28;19929;-68
2023/05/08 13:02:51;;;;;;;;;;;21.20;62.20;;;;;;4984289;28;19940;-67
2023/05/08 13:05:18;;;;;;;;;;;21.20;62.20;;;;;;4983481;28;19932;-67
2023/05/08 13:07:45;;;;;;;;;;;21.20;61.90;;;;;;4984711;28;19948;-67
2023/05/08 13:10:17;;;;;;;;;;;21.20;61.80;;;;;;4985631;28;19926;-68
2023/05/08 13:12:46;;;;;;;;;;;21.30;61.90;;;;;;4969203;28;19980;-68
2023/05/08 13:15:13;;;;;;;;;;;21.20;62.10;;;;;;4984933;28;20400;-67
2023/05/08 13:17:39;;;;;;;;;;;21.30;62.40;;;;;;4983598;28;19929;-66
2023/05/08 13:20:08;;;;;;;;;;;21.30;62.60;;;;;;4982822;28;19955;-68
2023/05/08 13:22:34;;;;;;;;;;;21.30;61.70;;;;;;4983604;28;19932;-66
2023/05/08 13:25:02;;;;;;;;;;;21.30;61.60;;;;;;4984896;28;19942;-67
2023/05/08 13:27:29;;;;;;;;;;;21.30;61.60;;;;;;4984529;28;19930;-67
2023/05/08 13:29:57;;;;;;;;;;;21.30;61.20;;;;;;4984091;28;19925;-67
2023/05/08 13:32:23;;;;;;;;;;;21.40;61.00;;;;;;4981808;28;20381;-67
2023/05/08 13:34:50;;;;;;;;;;;21.30;60.50;;;;;;4982340;28;19933;-67
2023/05/08 13:37:17;;;;;;;;;;;21.30;60.40;;;;;;4983512;28;19926;-67
2023/05/08 13:39:44;;;;;;;;;;;21.20;60.40;;;;;;4983177;28;19926;-65
2023/05/08 13:42:11;;;;;;;;;;;21.20;60.70;;;;;;4984034;28;19934;-66
2023/05/08 13:44:38;;;;;;;;;;;21.10;60.60;;;;;;4982585;28;19929;-68
2023/05/08 13:47:06;;;;;;;;;;;21.10;61.00;;;;;;4983183;28;19926;-66
2023/05/08 13:49:33;;;;;;;;;;;21.00;61.50;;;;;;4983126;28;19930;-67
2023/05/08 13:52:00;;;;;;;;;;;21.00;61.10;;;;;;4984545;28;19934;-67
2023/05/08 13:54:26;;;;;;;;;;;21.00;61.10;;;;;;4983169;28;19936;-67
2023/05/08 13:56:53;;;;;;;;;;;20.90;61.00;;;;;;4982679;28;19926;-67
2023/05/08 13:59:20;;;;;;;;;;;20.90;61.10;;;;;;4983386;28;20017;-67
2023/05/08 14:01:47;;;;;;;;;;;20.90;61.00;;;;;;4981911;28;20366;-67
2023/05/08 14:04:15;;;;;;;;;;;21.00;61.00;;;;;;4982564;28;19933;-65
2023/05/08 14:06:42;;;;;;;;;;;21.00;61.10;;;;;;4982889;28;20423;-67
2023/05/08 14:11:58;;;;;;;;;;;21.10;60.40;;;;;;4974139;28;19971;-67
2023/05/08 14:14:25;;;;;;;;;;;21.10;60.40;;;;;;4983742;28;19926;-67
2023/05/08 14:16:51;;;;;;;;;;;21.00;60.90;;;;;;4982632;28;19941;-67
2023/05/08 14:19:20;;;;;;;;;;;21.00;61.00;;;;;;4981103;28;20395;-67
2023/05/08 14:21:46;;;;;;;;;;;20.90;60.90;;;;;;4982309;28;19937;-67
2023/05/08 14:24:13;;;;;;;;;;;20.90;61.00;;;;;;4982036;28;19926;-64